Weather at Puerto Lempira Airport

Public forecast

Using degrees Celsius for public forecast. Weather courtesy of forecast.io.

Current aviation weather report (METAR) for Puerto Lempira Airport

Report is more than 6 hours old.

2022/11/29 00:00 (retrieved 10 hours ago)

MHPL 290000Z 05008KT 9999 FEW024TCU FEW026CB 27/23 Q1011

Closest aviation forecast (TAF) to Puerto Lempira Airport

Forecast is more than 12 hours old.

Closest forecast is Puerto Cabezas Airport, 76.5 nm (141.6 km) SSE.

2022/11/28 18:54 (retrieved 15 hours ago)

TAF MNPC 281650Z 2818/2918 08006KT 6000 VCRA BKN017TCU BECMG 2821/2904 VRB04KT 4000 DZ/TSRA SCT014CB BKN016 BECMG 2913/2917 07008KT 8000 VCRA SCT018TCU